Terminal Aerodrome Forecast
Issued by NWS

Home | Current Version | Previous Version | Text Only | Print | Product List | Glossary On
Versions: 1 2 3 4 5 6 7 8 9 10 11 12 13 14 15 16 17 18 19 20
000
FTUS46 KLOX 202300
TAFSBP
TAF
KSBP 202336Z 2100/2124 31012KT P6SM BKN025
     FM210300 VRB03KT P6SM BKN030
     FM210800 01006KT P6SM SCT030 BKN040
     FM211500 02010KT P6SM SCT040
     FM211900 33012KT P6SM SCT040=

USA.gov is the U.S. government's official web portal to all federal, state and local government web resources and services.